createdAt,value
2019-04-06T00:00:14.750Z,26.10
2019-04-06T00:02:45.138Z,26.50
2019-04-06T00:05:15.514Z,28.90
2019-04-06T00:07:47.922Z,27.50
2019-04-06T00:10:18.684Z,28.50
2019-04-06T00:12:52.533Z,27.77
2019-04-06T00:15:24.746Z,27.10
2019-04-06T00:18:00.846Z,26.67
2019-04-06T00:20:33.918Z,29.13
2019-04-06T00:23:04.156Z,25.63
2019-04-06T00:25:43.722Z,26.70
2019-04-06T00:28:06.758Z,26.57
2019-04-06T00:30:45.990Z,27.70
2019-04-06T00:33:17.692Z,25.47
2019-04-06T00:35:48.593Z,26.87
2019-04-06T00:38:18.928Z,27.73
2019-04-06T00:40:49.374Z,26.80
2019-04-06T00:43:19.793Z,26.80
2019-04-06T00:45:50.396Z,27.10
2019-04-06T00:48:21.070Z,27.30
2019-04-06T00:50:54.883Z,26.50
2019-04-06T00:53:27.133Z,26.47
2019-04-06T00:55:57.457Z,27.60
2019-04-06T00:58:27.878Z,28.73
2019-04-06T01:00:58.153Z,28.07
2019-04-06T01:03:28.672Z,26.80
2019-04-06T01:05:59.268Z,27.93
2019-04-06T01:08:29.629Z,26.50
2019-04-06T01:11:00.373Z,27.83
2019-04-06T01:13:32.247Z,28.90
2019-04-06T01:16:02.439Z,28.47
2019-04-06T01:18:32.603Z,28.70
2019-04-06T01:21:02.723Z,30.17
2019-04-06T01:23:33.320Z,30.50
2019-04-06T01:26:07.369Z,30.80
2019-04-06T01:28:35.907Z,31.37
2019-04-06T01:31:06.251Z,29.70
2019-04-06T01:33:36.593Z,30.33
2019-04-06T01:36:07.013Z,30.70
2019-04-06T01:38:37.731Z,31.17
2019-04-06T01:41:08.291Z,30.23
2019-04-06T01:43:38.860Z,29.67
2019-04-06T01:46:09.223Z,29.57
2019-04-06T01:48:39.781Z,30.00
2019-04-06T01:51:10.155Z,30.10
2019-04-06T01:53:41.381Z,29.97
2019-04-06T01:56:18.288Z,30.30
2019-04-06T01:58:43.303Z,29.97
2019-04-06T02:01:22.687Z,29.13
2019-04-06T02:03:52.991Z,30.47
2019-04-06T02:06:23.426Z,30.53
2019-04-06T02:08:53.818Z,31.80
2019-04-06T02:11:24.304Z,30.43
2019-04-06T02:13:54.838Z,30.63
2019-04-06T02:16:25.196Z,30.60
2019-04-06T02:18:55.387Z,31.63
2019-04-06T02:21:25.586Z,31.87
2019-04-06T02:23:56.341Z,32.33
2019-04-06T02:26:30.955Z,32.00
2019-04-06T02:28:58.462Z,33.43
2019-04-06T02:31:53.798Z,33.17
2019-04-06T02:34:54.971Z,31.97
2019-04-06T02:37:34.495Z,32.83
2019-04-06T02:40:11.435Z,34.00
2019-04-06T02:42:51.033Z,34.37
2019-04-06T02:45:21.256Z,34.83
2019-04-06T02:47:51.473Z,33.23
2019-04-06T02:50:21.998Z,34.20
2019-04-06T02:52:52.440Z,33.07
2019-04-06T02:55:24.088Z,34.13
2019-04-06T02:57:54.394Z,34.07
2019-04-06T03:00:24.955Z,36.57
2019-04-06T03:02:55.352Z,35.87
2019-04-06T03:05:25.853Z,34.83
2019-04-06T03:07:56.464Z,34.27
2019-04-06T03:10:27.192Z,34.53
2019-04-06T03:13:00.485Z,35.10
2019-04-06T03:15:31.152Z,35.33
2019-04-06T03:18:01.962Z,35.80
2019-04-06T03:20:32.202Z,35.87
2019-04-06T03:23:02.539Z,35.53
2019-04-06T03:25:34.646Z,34.93
2019-04-06T03:28:05.132Z,34.43
2019-04-06T03:30:35.898Z,36.00
2019-04-06T03:33:06.329Z,36.23
2019-04-06T03:35:45.119Z,35.43
2019-04-06T03:38:10.518Z,35.80
2019-04-06T03:40:40.874Z,34.63
2019-04-06T03:43:11.165Z,33.97
2019-04-06T03:45:41.743Z,34.97
2019-04-06T03:48:12.350Z,34.23
2019-04-06T03:50:45.582Z,36.03
2019-04-06T03:53:15.837Z,37.00
2019-04-06T03:55:47.354Z,34.23
2019-04-06T03:58:17.679Z,34.73
2019-04-06T04:00:48.258Z,35.70
2019-04-06T04:03:18.639Z,36.67
2019-04-06T04:05:48.953Z,36.43
2019-04-06T04:08:19.273Z,36.70
2019-04-06T04:10:50.044Z,33.67
2019-04-06T04:13:20.440Z,34.60
2019-04-06T04:15:50.849Z,34.87
2019-04-06T04:18:21.269Z,33.27
2019-04-06T04:20:51.875Z,33.20
2019-04-06T04:23:22.029Z,34.10
2019-04-06T04:25:52.299Z,34.00
2019-04-06T04:28:22.483Z,32.43
2019-04-06T04:30:52.783Z,35.73
2019-04-06T04:33:23.366Z,33.47
2019-04-06T04:35:54.206Z,34.57
2019-04-06T04:38:26.923Z,35.63
2019-04-06T04:40:58.302Z,35.13
2019-04-06T04:43:28.937Z,33.83
2019-04-06T04:45:59.088Z,33.13
2019-04-06T04:48:29.357Z,33.67
2019-04-06T04:50:59.550Z,35.13
2019-04-06T04:53:31.160Z,36.07
2019-04-06T04:56:01.583Z,33.63
2019-04-06T04:58:31.888Z,34.17
2019-04-06T05:01:02.379Z,33.67
2019-04-06T05:03:32.863Z,33.37
2019-04-06T05:06:03.087Z,34.97
2019-04-06T05:08:33.436Z,33.03
2019-04-06T05:11:06.421Z,34.83
2019-04-06T05:13:36.631Z,34.03
2019-04-06T05:16:13.925Z,35.67
2019-04-06T05:18:44.767Z,34.93
2019-04-06T05:21:15.372Z,33.83
2019-04-06T05:23:46.831Z,33.93
2019-04-06T05:26:18.907Z,32.63
2019-04-06T05:28:49.133Z,33.27
2019-04-06T05:31:19.748Z,33.50
2019-04-06T05:33:50.372Z,33.97
2019-04-06T05:36:20.657Z,35.23
2019-04-06T05:38:50.948Z,33.43
2019-04-06T05:41:21.638Z,34.40
2019-04-06T05:43:52.119Z,33.17
2019-04-06T05:46:22.442Z,33.70
2019-04-06T05:48:52.663Z,33.80
2019-04-06T05:51:23.049Z,34.67
2019-04-06T05:53:59.506Z,32.23
2019-04-06T05:56:29.743Z,34.13
2019-04-06T05:59:00.355Z,32.13
2019-04-06T06:01:31.218Z,34.87
2019-04-06T06:04:01.436Z,32.67
2019-04-06T06:06:31.938Z,34.23
2019-04-06T06:09:02.719Z,33.13
2019-04-06T06:11:33.053Z,33.33
2019-04-06T06:14:05.874Z,33.77
2019-04-06T06:16:38.292Z,33.33
2019-04-06T06:19:08.923Z,35.57
2019-04-06T06:21:40.955Z,36.07
2019-04-06T06:24:11.287Z,34.80
2019-04-06T06:26:41.896Z,34.73
2019-04-06T06:29:12.580Z,34.30
2019-04-06T06:31:43.098Z,34.37
2019-04-06T06:34:13.831Z,34.03
2019-04-06T06:36:44.624Z,32.97
2019-04-06T06:39:15.064Z,33.17
2019-04-06T06:41:45.808Z,33.43
2019-04-06T06:44:20.434Z,33.80
2019-04-06T06:46:50.979Z,34.27
2019-04-06T06:49:24.663Z,32.87
2019-04-06T06:51:55.455Z,34.30
2019-04-06T06:54:25.911Z,35.67
2019-04-06T06:56:59.033Z,32.87
2019-04-06T06:59:30.187Z,33.30
2019-04-06T07:02:01.892Z,33.27
2019-04-06T07:04:35.957Z,33.50
2019-04-06T07:07:07.182Z,32.60
2019-04-06T07:09:38.041Z,33.30
2019-04-06T07:12:08.247Z,34.70
2019-04-06T07:14:38.587Z,33.27
2019-04-06T07:17:10.089Z,32.70
2019-04-06T07:19:40.822Z,33.53
2019-04-06T07:22:13.918Z,33.17
2019-04-06T07:24:44.691Z,35.00
2019-04-06T07:27:15.488Z,33.40
2019-04-06T07:29:46.750Z,33.80
2019-04-06T07:32:18.863Z,32.70
2019-04-06T07:34:49.638Z,33.93
2019-04-06T07:37:20.015Z,33.40
2019-04-06T07:39:50.751Z,33.37
2019-04-06T07:42:21.849Z,33.23
2019-04-06T07:44:52.283Z,33.80
2019-04-06T07:47:23.044Z,32.10
2019-04-06T07:49:54.050Z,33.60
2019-04-06T07:52:24.312Z,31.97
2019-04-06T07:55:22.504Z,33.27
2019-04-06T07:57:53.758Z,33.10
2019-04-06T08:00:26.637Z,33.97
2019-04-06T08:02:57.708Z,34.50
2019-04-06T08:05:31.306Z,34.97
2019-04-06T08:08:05.133Z,33.40
2019-04-06T08:10:36.194Z,35.10
2019-04-06T08:13:07.976Z,32.20
2019-04-06T08:15:57.598Z,33.23
2019-04-06T08:18:29.302Z,33.70
2019-04-06T08:21:00.354Z,34.43
2019-04-06T08:23:45.133Z,33.57
2019-04-06T08:26:18.619Z,34.43
2019-04-06T08:28:59.805Z,34.17
2019-04-06T08:31:24.674Z,34.33
2019-04-06T08:33:57.150Z,34.60
2019-04-06T08:36:42.512Z,32.67
2019-04-06T08:39:09.225Z,34.70
2019-04-06T08:41:39.882Z,34.87
2019-04-06T08:45:02.705Z,33.17
2019-04-06T08:46:46.271Z,33.43
2019-04-06T08:49:18.974Z,33.57
2019-04-06T08:51:54.639Z,34.03
2019-04-06T08:54:32.592Z,33.07
2019-04-06T08:57:05.418Z,34.33
2019-04-06T08:59:39.400Z,34.80
2019-04-06T09:02:11.086Z,34.13
2019-04-06T09:05:26.743Z,33.53
2019-04-06T09:07:57.302Z,33.97
2019-04-06T09:10:28.248Z,32.23
2019-04-06T09:12:59.081Z,33.93
2019-04-06T09:15:42.534Z,33.20
2019-04-06T09:18:13.498Z,33.77
2019-04-06T09:20:44.283Z,33.70
2019-04-06T09:23:16.120Z,32.93
2019-04-06T09:25:47.192Z,32.93
2019-04-06T09:28:21.099Z,32.37
2019-04-06T09:30:55.884Z,34.00
2019-04-06T09:33:27.114Z,32.67
2019-04-06T09:35:59.600Z,34.10
2019-04-06T09:38:31.774Z,32.27
2019-04-06T09:41:07.374Z,35.10
2019-04-06T09:43:39.058Z,32.43
2019-04-06T09:46:28.589Z,33.87
2019-04-06T09:49:30.501Z,32.80
2019-04-06T09:52:26.708Z,32.93
2019-04-06T09:55:22.183Z,33.07
2019-04-06T09:58:25.953Z,35.10
2019-04-06T10:01:09.548Z,33.17
2019-04-06T10:03:57.731Z,33.97
2019-04-06T10:06:49.405Z,32.97
2019-04-06T10:09:58.587Z,34.57
2019-04-06T10:12:47.687Z,32.17
2019-04-06T10:15:46.623Z,32.90
2019-04-06T10:18:47.745Z,31.63
2019-04-06T10:21:40.862Z,32.50
2019-04-06T10:24:29.059Z,33.40
2019-04-06T10:27:30.042Z,34.00
2019-04-06T10:30:22.453Z,34.27
2019-04-06T10:33:22.308Z,32.40
2019-04-06T10:36:04.194Z,32.20
2019-04-06T10:38:58.674Z,32.97
2019-04-06T10:42:06.101Z,33.53
2019-04-06T10:45:07.646Z,32.30
2019-04-06T10:47:53.292Z,31.93
2019-04-06T10:50:32.945Z,31.33
2019-04-06T10:53:19.058Z,31.80
2019-04-06T10:56:14.583Z,30.90
2019-04-06T10:58:54.783Z,32.13
2019-04-06T11:01:50.510Z,30.53
2019-04-06T11:04:58.173Z,30.20
2019-04-06T11:07:48.292Z,31.53
2019-04-06T11:10:29.820Z,32.17
2019-04-06T11:13:38.794Z,31.43
2019-04-06T11:16:21.357Z,31.90
2019-04-06T11:19:30.135Z,31.63
2019-04-06T11:22:32.263Z,30.60
2019-04-06T11:25:18.641Z,32.83
2019-04-06T11:28:10.739Z,31.20
2019-04-06T11:31:06.415Z,30.50
2019-04-06T11:33:57.302Z,31.67
2019-04-06T11:36:49.509Z,31.57
2019-04-06T11:39:51.086Z,30.30
2019-04-06T11:42:39.481Z,30.33
2019-04-06T11:45:16.174Z,30.37
2019-04-06T11:48:20.683Z,31.27
2019-04-06T11:51:25.464Z,33.37
2019-04-06T11:58:55.831Z,30.77
2019-04-06T12:01:58.056Z,31.23
2019-04-06T12:04:51.072Z,31.57
2019-04-06T12:07:36.587Z,32.60
2019-04-06T12:10:25.914Z,31.37
2019-04-06T12:13:48.931Z,31.80
2019-04-06T12:16:48.143Z,30.20
2019-04-06T12:19:43.130Z,31.70
2019-04-06T12:22:54.814Z,30.40
2019-04-06T12:25:54.103Z,33.23
2019-04-06T12:28:33.849Z,32.50
2019-04-06T12:31:16.987Z,32.47
2019-04-06T12:33:58.054Z,32.83
2019-04-06T12:37:02.904Z,31.73
2019-04-06T12:39:58.773Z,32.03
2019-04-06T12:42:52.084Z,33.30
2019-04-06T12:45:42.730Z,32.83
2019-04-06T12:48:31.179Z,31.00
2019-04-06T12:51:18.921Z,33.13
2019-04-06T12:54:25.155Z,32.70
2019-04-06T12:57:17.758Z,31.20
2019-04-06T13:00:18.573Z,60.73
2019-04-06T13:03:10.948Z,31.63
2019-04-06T13:05:59.998Z,31.83
2019-04-06T13:08:56.030Z,31.90
2019-04-06T13:12:06.358Z,31.63
2019-04-06T13:14:50.094Z,30.10
2019-04-06T13:17:40.514Z,29.80
2019-04-06T13:20:19.659Z,29.80
2019-04-06T13:23:13.887Z,29.80
2019-04-06T13:26:04.077Z,32.03
2019-04-06T13:28:55.875Z,31.17
2019-04-06T13:31:45.544Z,30.27
2019-04-06T13:34:43.273Z,29.70
2019-04-06T13:37:31.368Z,31.03
2019-04-06T13:40:21.633Z,31.17
2019-04-06T13:43:13.900Z,30.43
2019-04-06T13:46:08.241Z,30.57
2019-04-06T13:48:57.842Z,29.33
2019-04-06T13:51:53.772Z,30.93
2019-04-06T13:54:37.649Z,30.83
2019-04-06T13:57:39.510Z,29.83
2019-04-06T14:00:37.922Z,50.67
2019-04-06T14:03:18.217Z,31.67
2019-04-06T14:06:02.203Z,32.33
2019-04-06T14:08:47.596Z,29.77
2019-04-06T14:11:29.669Z,31.30
2019-04-06T14:14:19.352Z,31.20
2019-04-06T14:17:10.258Z,31.30
2019-04-06T14:20:09.131Z,32.20
2019-04-06T14:22:55.677Z,31.47
2019-04-06T14:25:53.253Z,31.73
2019-04-06T14:28:42.153Z,31.00
2019-04-06T14:31:37.676Z,28.40
2019-04-06T14:35:01.885Z,30.80
2019-04-06T14:37:59.000Z,29.63
2019-04-06T14:40:46.659Z,30.03
2019-04-06T14:43:48.941Z,29.97
2019-04-06T14:46:48.651Z,29.43
2019-04-06T14:49:38.728Z,30.40
2019-04-06T14:52:15.753Z,30.47
2019-04-06T14:55:09.198Z,29.80
2019-04-06T14:58:01.251Z,31.07
2019-04-06T15:00:50.124Z,29.43
2019-04-06T15:03:42.582Z,28.50
2019-04-06T15:06:31.460Z,29.17
2019-04-06T15:09:35.948Z,28.70
2019-04-06T15:12:20.242Z,28.10
2019-04-06T15:15:45.075Z,29.93
2019-04-06T15:19:06.530Z,30.23
2019-04-06T15:22:04.708Z,28.20
2019-04-06T15:24:52.165Z,28.47
2019-04-06T15:27:40.952Z,29.00
2019-04-06T15:30:24.700Z,29.30
2019-04-06T15:33:33.087Z,31.50
2019-04-06T15:36:31.922Z,31.90
2019-04-06T15:39:22.912Z,31.57
2019-04-06T15:42:21.750Z,31.70
2019-04-06T15:45:15.534Z,32.23
2019-04-06T15:48:52.381Z,33.53
2019-04-06T15:51:49.906Z,32.13
2019-04-06T15:54:46.402Z,31.30
2019-04-06T15:57:28.881Z,32.33
2019-04-06T16:00:24.594Z,33.07
2019-04-06T16:03:17.607Z,32.03
2019-04-06T16:06:06.021Z,31.60
2019-04-06T16:09:09.557Z,31.90
2019-04-06T16:11:59.306Z,30.93
2019-04-06T16:15:02.183Z,30.43
2019-04-06T16:17:58.457Z,30.97
2019-04-06T16:20:53.799Z,29.17
2019-04-06T16:24:03.513Z,31.77
2019-04-06T16:27:12.048Z,30.10
2019-04-06T16:30:51.564Z,29.50
2019-04-06T16:40:52.536Z,30.87
2019-04-06T16:43:54.901Z,30.40
2019-04-06T16:46:59.346Z,28.67
2019-04-06T16:49:55.502Z,30.20
2019-04-06T16:53:20.315Z,30.67
2019-04-06T16:56:18.877Z,29.53
2019-04-06T17:03:31.210Z,30.13
2019-04-06T17:14:50.945Z,27.57
2019-04-06T17:24:49.733Z,27.30
2019-04-06T17:43:37.246Z,24.23
2019-04-06T17:47:12.263Z,26.10
2019-04-06T17:50:14.453Z,24.53
2019-04-06T17:53:24.593Z,25.60
2019-04-06T17:56:37.603Z,25.03
2019-04-06T17:59:45.334Z,26.40
2019-04-06T18:02:27.401Z,25.77
2019-04-06T18:05:10.705Z,25.43
2019-04-06T18:08:05.315Z,25.37
2019-04-06T18:10:58.235Z,27.50
2019-04-06T18:14:02.037Z,25.60
2019-04-06T18:16:38.688Z,25.70
2019-04-06T18:19:16.895Z,25.97
2019-04-06T18:21:50.734Z,26.40
2019-04-06T18:24:25.947Z,27.80
2019-04-06T18:27:18.785Z,28.00
2019-04-06T18:29:52.014Z,27.80
2019-04-06T18:32:38.370Z,28.57
2019-04-06T18:35:12.340Z,27.90
2019-04-06T18:38:02.430Z,29.37
2019-04-06T18:43:21.740Z,29.80
2019-04-06T18:45:53.333Z,29.20
2019-04-06T18:48:35.411Z,29.23
2019-04-06T18:51:17.010Z,29.37
2019-04-06T18:53:47.524Z,31.10
2019-04-06T18:56:20.318Z,31.03
2019-04-06T18:58:53.849Z,30.47
2019-04-06T19:01:26.392Z,31.77
2019-04-06T19:04:06.594Z,28.57
2019-04-06T19:06:43.122Z,32.30
2019-04-06T19:09:23.778Z,31.50
2019-04-06T19:11:55.072Z,32.53
2019-04-06T19:14:30.794Z,33.20
2019-04-06T19:17:07.304Z,31.13
2019-04-06T19:19:46.670Z,32.70
2019-04-06T19:22:18.306Z,33.50
2019-04-06T19:24:52.814Z,33.40
2019-04-06T19:27:25.333Z,31.80
2019-04-06T19:30:02.065Z,33.53
2019-04-06T19:32:39.144Z,32.63
2019-04-06T19:35:17.639Z,32.37
2019-04-06T19:38:00.919Z,31.70
2019-04-06T19:40:40.103Z,31.60
2019-04-06T19:43:17.234Z,31.13
2019-04-06T19:45:51.346Z,30.53
2019-04-06T19:48:25.848Z,30.33
2019-04-06T19:51:24.482Z,31.53
2019-04-06T19:53:56.557Z,33.10
2019-04-06T19:56:29.986Z,31.27
2019-04-06T19:59:12.571Z,33.70
2019-04-06T20:01:48.301Z,32.97
2019-04-06T20:04:50.876Z,32.47
2019-04-06T20:07:31.553Z,31.50
2019-04-06T20:10:10.964Z,33.07
2019-04-06T20:12:44.539Z,31.87
2019-04-06T20:15:16.469Z,31.60
2019-04-06T20:17:50.583Z,33.70
2019-04-06T20:20:31.663Z,31.97
2019-04-06T20:23:11.645Z,32.97
2019-04-06T20:25:46.364Z,34.53
2019-04-06T20:28:46.911Z,34.27
2019-04-06T20:31:39.620Z,33.80
2019-04-06T20:34:11.880Z,32.37
2019-04-06T20:39:34.309Z,32.53
2019-04-06T20:42:19.994Z,35.23
2019-04-06T20:45:06.292Z,31.60
2019-04-06T20:47:45.062Z,33.93
2019-04-06T20:50:29.878Z,32.80
2019-04-06T20:53:12.368Z,32.20
2019-04-06T20:55:46.269Z,33.30
2019-04-06T20:58:23.709Z,31.97
2019-04-06T21:00:56.154Z,32.07
2019-04-06T21:03:31.880Z,31.80
2019-04-06T21:06:22.149Z,30.97
2019-04-06T21:09:10.784Z,30.40
2019-04-06T21:11:48.004Z,29.67
2019-04-06T21:14:40.490Z,29.23
2019-04-06T21:17:27.671Z,31.90
2019-04-06T21:20:08.290Z,30.73
2019-04-06T21:22:58.597Z,31.30
2019-04-06T21:25:31.122Z,31.23
2019-04-06T21:28:02.071Z,31.43
2019-04-06T21:30:41.514Z,29.57
2019-04-06T21:33:14.736Z,28.00
2019-04-06T21:35:52.667Z,31.13
2019-04-06T21:38:24.194Z,29.23
2019-04-06T21:41:03.937Z,30.30
2019-04-06T21:43:43.388Z,29.00
2019-04-06T21:46:14.169Z,31.03
2019-04-06T21:48:46.911Z,29.23
2019-04-06T21:51:20.233Z,30.10
2019-04-06T21:53:50.675Z,28.80
2019-04-06T21:56:22.678Z,28.80
2019-04-06T21:59:00.470Z,28.03
2019-04-06T22:01:35.791Z,28.53
2019-04-06T22:04:08.065Z,28.50
2019-04-06T22:06:41.374Z,27.23
2019-04-06T22:09:18.616Z,27.03
2019-04-06T22:11:49.168Z,26.27
2019-04-06T22:14:27.046Z,29.57
2019-04-06T22:17:05.508Z,30.87
2019-04-06T22:19:39.212Z,27.77
2019-04-06T22:22:11.782Z,28.67
2019-04-06T22:24:50.258Z,29.33
2019-04-06T22:27:21.173Z,29.80
2019-04-06T22:29:57.714Z,30.57
2019-04-06T22:32:33.733Z,32.03
2019-04-06T22:35:11.502Z,29.30
2019-04-06T22:37:42.012Z,30.53
2019-04-06T22:40:13.352Z,31.30
2019-04-06T22:42:47.762Z,27.80
2019-04-06T22:45:20.773Z,29.50
2019-04-06T22:47:56.609Z,29.77
2019-04-06T22:50:34.044Z,29.53
2019-04-06T22:53:04.871Z,29.07
2019-04-06T22:55:35.526Z,31.33
2019-04-06T22:58:06.621Z,32.20
2019-04-06T23:00:48.684Z,31.40
2019-04-06T23:03:48.007Z,32.03
2019-04-06T23:06:28.972Z,33.00
2019-04-06T23:08:59.805Z,32.80
2019-04-06T23:11:30.727Z,33.17
2019-04-06T23:14:04.942Z,33.70
2019-04-06T23:16:35.542Z,31.37
2019-04-06T23:19:06.337Z,34.10
2019-04-06T23:21:37.232Z,32.93
2019-04-06T23:24:10.254Z,33.93
2019-04-06T23:26:45.497Z,33.17
2019-04-06T23:29:16.607Z,32.80
2019-04-06T23:31:53.119Z,31.33
2019-04-06T23:34:24.029Z,30.00
2019-04-06T23:36:55.774Z,28.67
2019-04-06T23:39:27.017Z,31.70
2019-04-06T23:42:04.629Z,27.43
2019-04-06T23:44:35.036Z,30.30
2019-04-06T23:47:05.785Z,26.17
2019-04-06T23:49:38.389Z,25.30
2019-04-06T23:52:12.047Z,28.27
2019-04-06T23:54:44.507Z,29.33
2019-04-06T23:57:16.962Z,30.70
2019-04-06T23:59:52.730Z,31.77
